Time;durP1;ratioP1;P1;durP2;ratioP2;P2;SDS_P1;SDS_P2;PMS_P1;PMS_P2;Temp;Humidity;BMP_temperature;BMP_pressure;BME280_temperature;BME280_humidity;BME280_pressure;Samples;Min_cycle;Max_cycle;Signal;HPM_P1;HPM_P2
2023/04/02 00:01:38;;;;;;;12.13;6.60;;;5.40;99.90;;;;;;5014040;28;20446;-33
2023/04/02 00:04:12;;;;;;;12.23;6.72;;;5.40;99.90;;;;;;5013874;28;20053;-33
2023/04/02 00:06:43;;;;;;;9.63;6.85;;;5.30;99.90;;;;;;5013746;28;20046;-33
2023/04/02 00:09:12;;;;;;;13.10;7.50;;;5.30;99.90;;;;;;5001897;28;20049;-33
2023/04/02 00:11:53;;;;;;;12.43;7.03;;;5.30;99.90;;;;;;4994118;28;20085;-33
2023/04/02 00:14:27;;;;;;;9.10;6.68;;;5.30;99.90;;;;;;4993903;28;20074;-33
2023/04/02 00:16:54;;;;;;;7.97;7.05;;;5.20;99.90;;;;;;4993932;28;20498;-33
2023/04/02 00:19:40;;;;;;;13.55;7.78;;;5.20;99.90;;;;;;4993994;28;20117;-33
2023/04/02 00:22:11;;;;;;;9.70;7.13;;;5.20;99.90;;;;;;4993795;28;20061;-33
2023/04/02 00:24:38;;;;;;;10.43;7.28;;;5.20;99.90;;;;;;5001234;28;20041;-33
2023/04/02 00:27:09;;;;;;;7.85;6.82;;;5.20;99.90;;;;;;5013274;28;20474;-33
2023/04/02 00:29:34;;;;;;;13.60;7.95;;;5.20;99.90;;;;;;5013485;28;20030;-33
2023/04/02 00:32:00;;;;;;;11.75;7.35;;;5.10;99.90;;;;;;5013567;28;20399;-33
2023/04/02 00:34:36;;;;;;;9.52;8.00;;;5.10;99.90;;;;;;5013553;28;20096;-33
2023/04/02 00:37:03;;;;;;;10.00;8.00;;;5.10;99.90;;;;;;5012976;28;20076;-33
2023/04/02 00:39:33;;;;;;;8.88;7.38;;;5.10;99.90;;;;;;5012795;28;20045;-33
2023/04/02 00:42:08;;;;;;;11.65;8.55;;;5.10;99.90;;;;;;5012957;28;20046;-36
2023/04/02 00:44:42;;;;;;;8.82;7.30;;;5.10;99.90;;;;;;5005154;28;20072;-33
2023/04/02 00:47:35;;;;;;;11.07;7.80;;;5.00;99.90;;;;;;4993316;28;20045;-33
2023/04/02 00:50:18;;;;;;;10.55;8.10;;;5.00;99.90;;;;;;4993108;28;20096;-33
2023/04/02 00:52:48;;;;;;;11.15;8.25;;;5.00;99.90;;;;;;4993371;28;20038;-33
2023/04/02 00:55:26;;;;;;;10.73;8.15;;;5.00;99.90;;;;;;4992922;28;20046;-33
2023/04/02 00:57:54;;;;;;;11.02;7.60;;;5.00;99.90;;;;;;4993285;28;20455;-33
2023/04/02 01:00:29;;;;;;;11.43;7.55;;;5.00;99.90;;;;;;4992874;28;20122;-33
2023/04/02 01:03:33;;;;;;;8.77;7.10;;;4.90;99.90;;;;;;4993181;28;20038;-33
2023/04/02 01:06:09;;;;;;;9.55;7.80;;;4.90;99.90;;;;;;4992934;28;20450;-33
2023/04/02 01:08:59;;;;;;;9.93;8.50;;;4.90;99.90;;;;;;4993035;28;20080;-32
2023/04/02 01:12:03;;;;;;;11.23;8.30;;;4.80;99.90;;;;;;4992901;28;20456;-33
2023/04/02 01:14:54;;;;;;;10.05;8.43;;;4.80;99.90;;;;;;4992957;28;20507;-33
2023/04/02 01:17:37;;;;;;;12.55;8.00;;;4.70;99.90;;;;;;4976388;28;20046;-33
2023/04/02 01:20:21;;;;;;;8.33;7.43;;;4.70;99.90;;;;;;4992675;28;20038;-33
2023/04/02 01:22:51;;;;;;;10.15;8.00;;;4.70;99.90;;;;;;4993676;28;20269;-33
2023/04/02 01:25:29;;;;;;;11.73;8.02;;;4.70;99.90;;;;;;4992700;28;20614;-33
2023/04/02 01:28:21;;;;;;;8.45;7.50;;;4.70;99.90;;;;;;4992655;28;20034;-33
2023/04/02 01:30:51;;;;;;;7.68;6.18;;;4.60;99.90;;;;;;4993875;28;20042;-32
2023/04/02 01:33:22;;;;;;;10.38;6.10;;;4.50;99.90;;;;;;4992252;28;20039;-33
2023/04/02 01:35:58;;;;;;;6.85;5.85;;;4.50;99.90;;;;;;4992483;28;20096;-32
2023/04/02 01:38:33;;;;;;;9.00;6.40;;;4.40;99.90;;;;;;4992445;28;20058;-33
2023/04/02 01:41:09;;;;;;;6.78;5.78;;;4.30;99.90;;;;;;4992571;28;20110;-33
2023/04/02 01:43:54;;;;;;;7.45;5.28;;;4.30;99.90;;;;;;4992146;28;20050;-33
2023/04/02 01:46:32;;;;;;;7.10;5.57;;;4.20;99.90;;;;;;4992312;28;20479;-33
2023/04/02 01:49:01;;;;;;;5.45;4.70;;;4.20;99.90;;;;;;4992476;28;20545;-33
2023/04/02 01:51:33;;;;;;;6.60;4.40;;;4.10;99.90;;;;;;4991990;28;20042;-33
2023/04/02 01:54:01;;;;;;;7.07;4.70;;;4.00;99.90;;;;;;4992220;28;20491;-33
2023/04/02 01:56:29;;;;;;;6.90;4.60;;;4.00;99.90;;;;;;4993001;28;20104;-32
2023/04/02 01:58:56;;;;;;;7.10;4.43;;;3.90;99.90;;;;;;4975687;28;20050;-33
2023/04/02 02:01:28;;;;;;;8.32;4.10;;;3.90;99.90;;;;;;4991780;28;20529;-33
2023/04/02 02:03:54;;;;;;;5.68;3.33;;;3.80;99.90;;;;;;4996427;28;20038;-35
2023/04/02 02:06:22;;;;;;;7.20;3.95;;;3.70;99.90;;;;;;4997450;28;20169;-34
2023/04/02 02:09:02;;;;;;;6.72;3.58;;;3.60;99.90;;;;;;4991449;28;20042;-35
2023/04/02 02:11:30;;;;;;;5.85;3.25;;;3.60;99.90;;;;;;4991712;28;20030;-33
2023/04/02 02:14:01;;;;;;;4.95;3.00;;;3.50;99.90;;;;;;4991280;28;20039;-33
2023/04/02 02:16:28;;;;;;;4.43;3.05;;;3.50;99.90;;;;;;4998513;28;20038;-36
2023/04/02 02:19:01;;;;;;;5.40;2.95;;;3.40;99.90;;;;;;4991280;28;20399;-36
2023/04/02 02:21:44;;;;;;;4.32;3.03;;;3.40;99.90;;;;;;4991650;28;20030;-36
2023/04/02 02:24:27;;;;;;;4.53;2.85;;;3.40;99.90;;;;;;5001066;28;20070;-37
2023/04/02 02:27:11;;;;;;;5.53;3.45;;;3.40;99.90;;;;;;4984707;28;20042;-37
2023/04/02 02:29:39;;;;;;;4.68;3.28;;;3.40;99.90;;;;;;4999526;28;20034;-38
2023/04/02 02:32:08;;;;;;;6.40;2.97;;;3.30;99.90;;;;;;4985517;28;20070;-36
2023/04/02 02:34:40;;;;;;;4.65;2.95;;;3.30;99.90;;;;;;4985518;28;20113;-37
2023/04/02 02:37:15;;;;;;;4.32;2.80;;;3.20;99.90;;;;;;4988214;28;20404;-36
2023/04/02 02:39:47;;;;;;;4.57;2.60;;;3.10;99.90;;;;;;4991289;28;20125;-37
2023/04/02 02:42:35;;;;;;;5.93;2.60;;;3.00;99.90;;;;;;4985637;28;20064;-35
2023/04/02 02:45:05;;;;;;;4.93;2.60;;;2.90;99.90;;;;;;4989751;28;20046;-35
2023/04/02 02:47:35;;;;;;;5.03;2.80;;;2.90;99.90;;;;;;4991672;28;20041;-35
2023/04/02 02:50:11;;;;;;;5.40;2.85;;;2.80;99.90;;;;;;4986614;28;20553;-35
2023/04/02 02:52:38;;;;;;;3.17;2.42;;;2.70;99.90;;;;;;4990674;28;20042;-35
2023/04/02 02:55:11;;;;;;;4.05;2.95;;;2.70;99.90;;;;;;4990605;28;20044;-35
2023/04/02 02:57:43;;;;;;;5.50;3.38;;;2.60;99.90;;;;;;4991087;28;21397;-35
2023/04/02 03:00:14;;;;;;;7.85;3.40;;;2.60;99.90;;;;;;4986989;28;20450;-35
2023/04/02 03:02:42;;;;;;;7.15;3.47;;;2.50;99.90;;;;;;4994776;28;20035;-35
2023/04/02 03:05:09;;;;;;;7.60;3.72;;;2.40;99.90;;;;;;4982592;28;20041;-35
2023/04/02 03:07:36;;;;;;;8.43;3.45;;;2.40;99.90;;;;;;4996212;28;20038;-35
2023/04/02 03:10:14;;;;;;;7.53;3.30;;;2.40;99.90;;;;;;4989919;28;20043;-35
2023/04/02 03:13:28;;;;;;;5.70;3.17;;;2.30;99.90;;;;;;4990648;28;20074;-35
2023/04/02 03:16:00;;;;;;;6.25;3.42;;;2.30;99.90;;;;;;4979784;28;20082;-35
2023/04/02 03:19:00;;;;;;;7.25;3.70;;;2.20;99.90;;;;;;4992731;28;20073;-35
2023/04/02 03:21:50;;;;;;;4.53;3.22;;;2.20;99.90;;;;;;4989844;28;20089;-34
2023/04/02 03:24:31;;;;;;;4.65;3.63;;;2.20;99.90;;;;;;4975297;28;20122;-34
2023/04/02 03:27:19;;;;;;;7.75;3.85;;;2.10;99.90;;;;;;5009495;28;20070;-34
2023/04/02 03:30:01;;;;;;;6.22;4.65;;;2.10;99.90;;;;;;4978272;28;20523;-34
2023/04/02 03:32:33;;;;;;;7.45;4.07;;;2.00;99.90;;;;;;4975371;28;20047;-35
2023/04/02 03:35:04;;;;;;;5.18;3.40;;;2.10;99.90;;;;;;5002713;28;20034;-35
2023/04/02 03:37:43;;;;;;;10.80;4.55;;;2.00;99.90;;;;;;4975013;28;20046;-34
2023/04/02 03:40:21;;;;;;;7.22;4.72;;;2.00;99.90;;;;;;4976554;28;20109;-34
2023/04/02 03:43:00;;;;;;;5.20;4.10;;;2.00;99.90;;;;;;5005062;28;20513;-35
2023/04/02 03:45:30;;;;;;;5.47;4.00;;;2.00;99.90;;;;;;5007298;28;20129;-35
2023/04/02 03:48:13;;;;;;;6.20;4.82;;;2.00;99.90;;;;;;5007388;28;20045;-35
2023/04/02 03:50:50;;;;;;;9.35;5.55;;;2.00;99.90;;;;;;5005269;28;20043;-34
2023/04/02 03:53:16;;;;;;;8.02;4.25;;;2.00;99.90;;;;;;5001188;28;20038;-35
2023/04/02 03:55:43;;;;;;;8.13;5.03;;;2.00;99.90;;;;;;4995109;28;20050;-35
2023/04/02 03:58:20;;;;;;;9.45;4.78;;;2.00;99.90;;;;;;4993889;28;20046;-34
2023/04/02 04:01:01;;;;;;;7.43;4.75;;;2.00;99.90;;;;;;4994046;28;20042;-35
2023/04/02 04:03:55;;;;;;;8.52;5.00;;;2.10;99.90;;;;;;4994728;28;20046;-34
2023/04/02 04:06:30;;;;;;;10.18;4.65;;;2.10;99.90;;;;;;4994513;28;20042;-34
2023/04/02 04:09:17;;;;;;;6.93;5.20;;;2.10;99.90;;;;;;4993952;28;20042;-35
2023/04/02 04:11:47;;;;;;;5.32;4.75;;;2.10;99.90;;;;;;4994124;28;20045;-35
2023/04/02 04:14:17;;;;;;;7.10;5.25;;;2.10;99.90;;;;;;4999036;28;20049;-35
2023/04/02 04:16:58;;;;;;;7.35;4.90;;;2.10;99.90;;;;;;5005085;28;20452;-35
2023/04/02 04:19:44;;;;;;;5.50;4.80;;;2.10;99.90;;;;;;4987957;28;20039;-35
2023/04/02 04:22:29;;;;;;;10.60;5.10;;;2.20;99.90;;;;;;5007271;28;20042;-35
2023/04/02 04:24:56;;;;;;;6.65;4.57;;;2.20;99.90;;;;;;4992787;28;20057;-35
2023/04/02 04:27:51;;;;;;;5.00;4.28;;;2.10;99.90;;;;;;4993406;28;20034;-35
2023/04/02 04:30:28;;;;;;;6.05;4.22;;;2.10;99.90;;;;;;5005102;28;20096;-35
2023/04/02 04:33:02;;;;;;;6.25;4.28;;;2.20;99.90;;;;;;5009392;28;20125;-35
2023/04/02 04:35:35;;;;;;;10.95;4.07;;;2.20;99.90;;;;;;4974197;28;20290;-35
2023/04/02 04:38:16;;;;;;;8.38;4.75;;;2.20;99.90;;;;;;4974127;28;20129;-35
2023/04/02 04:40:51;;;;;;;5.50;4.22;;;2.20;99.90;;;;;;5010288;28;20042;-35
2023/04/02 04:43:25;;;;;;;5.47;3.90;;;2.20;99.90;;;;;;4986363;28;20042;-35
2023/04/02 04:45:58;;;;;;;7.13;3.90;;;2.20;99.90;;;;;;4993301;28;20093;-35
2023/04/02 04:48:41;;;;;;;6.57;4.25;;;2.20;99.90;;;;;;4985001;28;20482;-35
2023/04/02 04:51:28;;;;;;;7.03;4.03;;;2.20;99.90;;;;;;5004196;28;20038;-35
2023/04/02 04:53:54;;;;;;;9.73;4.50;;;2.10;99.90;;;;;;5012908;28;20455;-35
2023/04/02 04:56:26;;;;;;;6.55;4.45;;;2.10;99.90;;;;;;5012481;28;20124;-35
2023/04/02 04:59:01;;;;;;;5.82;3.63;;;2.10;99.90;;;;;;4994959;28;20046;-35
2023/04/02 05:01:37;;;;;;;7.97;4.45;;;2.10;99.90;;;;;;4992578;28;20069;-35
2023/04/02 05:04:23;;;;;;;7.00;4.63;;;2.10;99.90;;;;;;4993533;28;20046;-39
2023/04/02 05:07:11;;;;;;;4.82;3.85;;;2.10;99.90;;;;;;4990657;28;20043;-35
2023/04/02 05:09:55;;;;;;;7.10;4.82;;;2.10;99.90;;;;;;4998563;28;20034;-34
2023/04/02 05:12:52;;;;;;;5.78;5.20;;;2.10;99.90;;;;;;4993006;28;20038;-35
2023/04/02 05:15:20;;;;;;;5.80;4.97;;;2.00;99.90;;;;;;4995607;28;20113;-35
2023/04/02 05:18:14;;;;;;;6.15;4.55;;;2.00;99.90;;;;;;5010294;28;20089;-35
2023/04/02 05:20:50;;;;;;;7.38;4.65;;;2.10;99.90;;;;;;4994892;28;20038;-35
2023/04/02 05:23:16;;;;;;;9.95;5.25;;;2.00;99.90;;;;;;4976407;28;20039;-35
2023/04/02 05:26:17;;;;;;;9.10;5.57;;;2.00;99.90;;;;;;4991077;28;20050;-35
2023/04/02 05:29:12;;;;;;;9.98;6.50;;;2.00;99.90;;;;;;4969015;28;20427;-35
2023/04/02 05:31:47;;;;;;;7.05;4.90;;;2.00;99.90;;;;;;4990607;28;20499;-35
2023/04/02 05:34:28;;;;;;;6.15;5.38;;;2.00;99.90;;;;;;4974588;28;20070;-35
2023/04/02 05:36:55;;;;;;;7.35;6.07;;;2.00;99.90;;;;;;4997580;28;20065;-35
2023/04/02 05:39:24;;;;;;;7.75;6.25;;;2.00;99.90;;;;;;4993909;28;20097;-35
2023/04/02 05:42:02;;;;;;;9.05;6.15;;;2.00;99.90;;;;;;4994026;28;20038;-35
2023/04/02 05:44:31;;;;;;;7.43;5.40;;;2.00;99.90;;;;;;4993687;28;20030;-36
2023/04/02 05:47:05;;;;;;;7.95;5.38;;;2.10;99.90;;;;;;5006375;28;20043;-34
2023/04/02 05:49:50;;;;;;;8.25;5.40;;;2.10;99.90;;;;;;4994056;28;20373;-34
2023/04/02 05:52:24;;;;;;;6.32;4.72;;;2.10;99.90;;;;;;4992410;28;20037;-34
2023/04/02 05:54:55;;;;;;;;;;;2.10;99.90;;;;;;4993825;28;20036;-34
2023/04/02 05:57:30;;;;;;;6.50;4.22;;;2.20;99.90;;;;;;4989102;28;19948;-34
2023/04/02 06:00:02;;;;;;;6.47;4.38;;;2.20;99.90;;;;;;4991445;28;20073;-34
2023/04/02 06:02:43;;;;;;;5.55;4.30;;;2.30;99.90;;;;;;4993763;28;20492;-34
2023/04/02 06:05:21;;;;;;;6.78;3.95;;;2.30;99.90;;;;;;4992751;28;20050;-33
2023/04/02 06:08:02;;;;;;;6.03;3.45;;;2.40;99.90;;;;;;4997995;28;20529;-33
2023/04/02 06:10:44;;;;;;;4.57;2.95;;;2.40;99.90;;;;;;5007580;28;20042;-34
2023/04/02 06:13:17;;;;;;;5.47;2.90;;;2.40;99.90;;;;;;4993528;28;20085;-34
2023/04/02 06:15:44;;;;;;;4.03;2.85;;;2.40;99.90;;;;;;4992926;28;20034;-34
2023/04/02 06:18:19;;;;;;;3.63;2.13;;;2.40;99.90;;;;;;4992768;28;20035;-33
2023/04/02 06:20:46;;;;;;;5.45;2.50;;;2.50;99.90;;;;;;4976165;28;20042;-34
2023/04/02 06:23:29;;;;;;;5.82;3.20;;;2.50;99.90;;;;;;5001582;28;20349;-34
2023/04/02 06:26:06;;;;;;;7.10;3.05;;;2.50;99.90;;;;;;4994738;28;20408;-34
2023/04/02 06:28:59;;;;;;;7.70;2.97;;;2.50;99.90;;;;;;4992799;28;20070;-34
2023/04/02 06:31:44;;;;;;;6.05;2.90;;;2.50;99.90;;;;;;4992459;28;20447;-34
2023/04/02 06:34:19;;;;;;;5.07;3.47;;;2.60;99.90;;;;;;4992283;28;20138;-34
2023/04/02 06:36:46;;;;;;;5.88;3.20;;;2.60;99.90;;;;;;4992499;28;20045;-34
2023/04/02 06:39:19;;;;;;;5.22;2.53;;;2.70;99.90;;;;;;4981241;28;20496;-33
2023/04/02 06:42:40;;;;;;;5.93;2.80;;;2.70;99.90;;;;;;4992712;28;20575;-34
2023/04/02 06:45:26;;;;;;;7.10;2.95;;;2.80;99.90;;;;;;4990661;28;20046;-34
2023/04/02 06:47:58;;;;;;;5.15;2.85;;;2.80;99.90;;;;;;5001744;28;20041;-34
2023/04/02 06:50:44;;;;;;;8.38;3.15;;;2.90;99.90;;;;;;5000065;28;20177;-34
2023/04/02 06:53:29;;;;;;;5.03;3.00;;;3.00;99.90;;;;;;4999137;28;20038;-34
2023/04/02 06:56:16;;;;;;;3.85;2.45;;;2.90;99.90;;;;;;4986614;28;20429;-34
2023/04/02 06:58:42;;;;;;;4.88;2.50;;;3.00;99.90;;;;;;4981747;28;20074;-34
2023/04/02 07:01:15;;;;;;;7.90;3.03;;;3.00;99.90;;;;;;4996297;28;20105;-34
2023/04/02 07:03:51;;;;;;;3.28;2.40;;;3.10;99.90;;;;;;4998134;28;20037;-34
2023/04/02 07:06:48;;;;;;;5.20;2.33;;;3.20;99.90;;;;;;4996449;28;20492;-34
2023/04/02 07:09:15;;;;;;;6.35;2.50;;;3.30;99.90;;;;;;4972010;28;20068;-35
2023/04/02 07:11:41;;;;;;;5.57;2.63;;;3.40;99.90;;;;;;4978638;28;20113;-33
2023/04/02 07:14:12;;;;;;;5.53;2.40;;;3.40;99.90;;;;;;4978550;28;20496;-33
2023/04/02 07:16:58;;;;;;;7.15;2.38;;;3.40;99.90;;;;;;4994690;28;20559;-35
2023/04/02 07:19:44;;;;;;;4.13;2.63;;;3.40;99.90;;;;;;4979211;28;20094;-33
2023/04/02 07:22:12;;;;;;;2.50;2.28;;;3.50;99.90;;;;;;4978742;28;20043;-33
2023/04/02 07:24:37;;;;;;;7.57;2.90;;;3.60;99.90;;;;;;4994605;28;20519;-33
2023/04/02 07:27:04;;;;;;;4.07;2.35;;;3.70;99.90;;;;;;4977075;28;20042;-33
2023/04/02 07:29:32;;;;;;;5.80;2.60;;;3.70;99.90;;;;;;4976166;28;20043;-33
2023/04/02 07:31:58;;;;;;;4.78;2.47;;;3.80;99.90;;;;;;4977459;28;20110;-33
2023/04/02 07:34:24;;;;;;;5.63;2.55;;;3.90;99.90;;;;;;4978222;28;20069;-33
2023/04/02 07:36:51;;;;;;;6.32;2.38;;;3.90;99.90;;;;;;4976807;28;20050;-33
2023/04/02 07:39:17;;;;;;;6.53;2.50;;;4.00;99.90;;;;;;4977079;28;20078;-33
2023/04/02 07:42:00;;;;;;;4.63;2.30;;;3.90;99.90;;;;;;4977805;28;20050;-34
2023/04/02 07:44:27;;;;;;;7.63;2.80;;;4.00;99.90;;;;;;4979595;28;20042;-33
2023/04/02 07:46:54;;;;;;;5.13;2.70;;;4.10;99.90;;;;;;4978372;28;20051;-33
2023/04/02 07:49:20;;;;;;;5.22;2.60;;;4.10;99.90;;;;;;4978121;28;20082;-33
2023/04/02 07:51:50;;;;;;;4.20;2.40;;;4.20;99.90;;;;;;4978239;28;20042;-33
2023/04/02 07:54:16;;;;;;;5.13;2.42;;;4.50;99.90;;;;;;4978664;28;20396;-33
2023/04/02 07:56:42;;;;;;;2.78;2.42;;;4.60;99.90;;;;;;4977718;28;20043;-33
2023/04/02 07:59:08;;;;;;;4.20;2.35;;;4.80;99.90;;;;;;4977564;28;20042;-33
2023/04/02 08:01:34;;;;;;;3.15;2.00;;;4.90;99.90;;;;;;4993580;28;20066;-33
2023/04/02 08:04:02;;;;;;;3.03;2.38;;;5.10;99.90;;;;;;4993565;28;20485;-33
2023/04/02 08:06:29;;;;;;;4.65;2.40;;;5.20;99.90;;;;;;4977673;28;20102;-33
2023/04/02 08:08:56;;;;;;;5.57;2.22;;;5.30;99.90;;;;;;4977406;28;20043;-32
2023/04/02 08:11:22;;;;;;;4.75;2.50;;;5.50;99.90;;;;;;4978012;28;20035;-36
2023/04/02 08:13:48;;;;;;;8.10;2.70;;;5.70;99.90;;;;;;4978188;28;20510;-35
2023/04/02 08:16:15;;;;;;;4.38;2.55;;;5.80;99.90;;;;;;4977342;28;20054;-34
2023/04/02 08:18:41;;;;;;;6.10;2.38;;;5.90;99.90;;;;;;4977082;28;20043;-34
2023/04/02 08:21:08;;;;;;;4.25;2.50;;;6.10;99.90;;;;;;4977463;28;20041;-34
2023/04/02 08:23:35;;;;;;;2.60;2.35;;;6.20;99.90;;;;;;4977644;28;20480;-34
2023/04/02 08:26:02;;;;;;;2.78;2.40;;;6.40;99.90;;;;;;4977658;28;20043;-34
2023/04/02 08:28:28;;;;;;;3.78;2.58;;;6.50;99.90;;;;;;4977146;28;20035;-31
2023/04/02 08:30:54;;;;;;;5.60;2.47;;;6.50;99.90;;;;;;4993563;28;20507;-32
2023/04/02 08:33:19;;;;;;;5.32;2.60;;;6.50;99.90;;;;;;4993208;28;20121;-32
2023/04/02 08:35:46;;;;;;;3.80;2.60;;;6.60;99.90;;;;;;4976594;28;20113;-33
2023/04/02 08:38:17;;;;;;;5.50;2.10;;;6.90;99.90;;;;;;4976942;28;20049;-33
2023/04/02 08:40:46;;;;;;;4.13;2.15;;;7.20;99.90;;;;;;4982487;28;20042;-33
2023/04/02 08:43:18;;;;;;;4.38;2.22;;;7.30;99.90;;;;;;4995984;28;20050;-34
2023/04/02 08:46:05;;;;;;;5.53;2.45;;;7.60;99.90;;;;;;4996126;28;20066;-34
2023/04/02 08:48:33;;;;;;;2.60;2.40;;;7.90;99.90;;;;;;4996403;28;20041;-34
2023/04/02 08:51:00;;;;;;;4.13;2.17;;;7.90;99.90;;;;;;4996195;28;20030;-34
2023/04/02 08:53:36;;;;;;;2.75;2.10;;;7.80;99.90;;;;;;4996462;28;20392;-34
2023/04/02 08:56:07;;;;;;;3.22;2.25;;;7.80;99.90;;;;;;4995877;28;20452;-33
2023/04/02 08:59:05;;;;;;;4.35;2.25;;;7.80;99.90;;;;;;4997117;28;20058;-34
2023/04/02 09:01:58;;;;;;;3.22;2.13;;;8.00;99.90;;;;;;4964224;28;20054;-34
2023/04/02 09:04:25;;;;;;;3.70;2.83;;;8.40;99.90;;;;;;4996604;28;20093;-33
2023/04/02 09:06:55;;;;;;;4.47;2.60;;;8.70;99.90;;;;;;5005285;28;20038;-34
2023/04/02 09:09:22;;;;;;;5.03;2.47;;;8.60;99.90;;;;;;4997440;28;20053;-34
2023/04/02 09:12:00;;;;;;;3.78;2.00;;;8.80;99.90;;;;;;4994313;28;20045;-34
2023/04/02 09:14:49;;;;;;;2.78;2.17;;;9.00;99.90;;;;;;5012265;28;20037;-34
2023/04/02 09:17:17;;;;;;;3.00;1.60;;;9.20;99.90;;;;;;5014411;28;20049;-35
2023/04/02 09:20:07;;;;;;;3.83;2.05;;;9.20;99.90;;;;;;5015117;28;20050;-36
2023/04/02 09:22:33;;;;;;;4.15;2.20;;;9.40;99.90;;;;;;5016699;28;20057;-32
2023/04/02 09:25:03;;;;;;;5.38;1.90;;;9.60;99.90;;;;;;5015488;28;20034;-33
2023/04/02 09:27:32;;;;;;;3.83;1.88;;;9.50;99.90;;;;;;5014960;28;20085;-34
2023/04/02 09:30:20;;;;;;;3.65;1.52;;;9.80;99.90;;;;;;5016359;28;20113;-33
2023/04/02 09:32:52;;;;;;;4.50;1.90;;;9.60;99.90;;;;;;5015314;28;20037;-33
2023/04/02 09:35:50;;;;;;;2.05;1.50;;;9.80;99.90;;;;;;5011345;28;20484;-35
2023/04/02 09:38:20;;;;;;;1.90;1.48;;;9.90;99.90;;;;;;5015413;22;20049;-37
2023/04/02 09:40:49;;;;;;;4.78;1.85;;;10.10;99.90;;;;;;5000663;28;20030;-36
2023/04/02 09:43:18;;;;;;;3.00;1.95;;;10.60;99.90;;;;;;4998986;28;20034;-37
2023/04/02 09:45:55;;;;;;;5.50;1.92;;;11.10;99.90;;;;;;4997523;28;20070;-37
2023/04/02 09:48:23;;;;;;;4.55;1.83;;;11.30;99.90;;;;;;4999195;28;20099;-37
2023/04/02 09:50:49;;;;;;;4.95;1.90;;;11.20;99.90;;;;;;4995640;28;20035;-37
2023/04/02 09:53:27;;;;;;;3.15;2.08;;;11.30;99.90;;;;;;4993297;28;20041;-37
2023/04/02 09:56:17;;;;;;;4.03;1.85;;;11.70;99.90;;;;;;4984607;28;20054;-36
2023/04/02 09:58:44;;;;;;;3.53;1.50;;;12.00;99.90;;;;;;4982496;28;20047;-37
2023/04/02 10:01:33;;;;;;;3.75;1.63;;;12.20;99.90;;;;;;4994670;28;20102;-36
2023/04/02 10:04:02;;;;;;;4.00;1.65;;;11.90;82.40;;;;;;5003941;28;20543;-37
2023/04/02 10:06:33;;;;;;;3.33;1.58;;;11.90;99.90;;;;;;4997502;28;20527;-37
2023/04/02 10:09:20;;;;;;;2.50;1.67;;;11.90;99.90;;;;;;4995989;28;20503;-36
2023/04/02 10:11:47;;;;;;;3.70;1.98;;;11.80;75.60;;;;;;4998106;28;20165;-36
2023/04/02 10:14:27;;;;;;;3.08;1.50;;;11.60;99.90;;;;;;4997032;28;20510;-37
2023/04/02 10:16:56;;;;;;;3.65;1.80;;;11.60;79.10;;;;;;4996433;28;20510;-36
2023/04/02 10:19:39;;;;;;;2.28;1.40;;;11.60;99.90;;;;;;5009463;28;20029;-37
2023/04/02 10:22:13;;;;;;;2.25;1.50;;;11.80;99.90;;;;;;4990803;28;20042;-36
2023/04/02 10:24:39;;;;;;;3.95;1.77;;;12.10;99.90;;;;;;4987476;28;20042;-37
2023/04/02 10:27:21;;;;;;;4.95;1.45;;;12.60;99.90;;;;;;4992630;28;20042;-37
2023/04/02 10:30:11;;;;;;;2.00;1.60;;;12.80;99.90;;;;;;5013934;28;20038;-37
2023/04/02 10:32:55;;;;;;;3.10;1.45;;;12.80;99.90;;;;;;4997555;28;20118;-37
2023/04/02 10:36:01;;;;;;;4.80;1.88;;;12.80;99.90;;;;;;5016553;28;20034;-37
2023/04/02 10:38:53;;;;;;;4.88;1.75;;;12.80;68.00;;;;;;4996164;28;20061;-37
2023/04/02 10:41:34;;;;;;;3.47;1.48;;;12.90;71.70;;;;;;5000252;28;20096;-37
2023/04/02 10:44:27;;;;;;;3.38;1.70;;;13.30;90.70;;;;;;4996412;28;20053;-37
2023/04/02 10:47:18;;;;;;;2.22;1.63;;;13.00;72.00;;;;;;4987593;28;20545;-37
2023/04/02 10:49:53;;;;;;;2.72;1.48;;;13.00;64.40;;;;;;4999298;28;20038;-37
2023/04/02 10:52:25;;;;;;;2.88;1.50;;;13.30;99.90;;;;;;4982206;28;20034;-37
2023/04/02 10:54:55;;;;;;;3.03;1.50;;;13.30;97.30;;;;;;4996976;28;20030;-38
2023/04/02 10:57:32;;;;;;;2.38;1.42;;;13.40;99.90;;;;;;4995426;28;20047;-37
2023/04/02 11:00:06;;;;;;;3.45;1.50;;;13.90;90.50;;;;;;4993419;28;20269;-37
2023/04/02 11:02:45;;;;;;;3.15;1.60;;;14.50;77.90;;;;;;4990650;28;20062;-36
2023/04/02 11:05:42;;;;;;;2.45;1.25;;;15.20;84.10;;;;;;4996372;28;20045;-37
2023/04/02 11:08:43;;;;;;;3.17;1.40;;;15.20;65.90;;;;;;4992112;28;20092;-37
2023/04/02 11:11:08;;;;;;;2.00;1.30;;;15.20;61.60;;;;;;4993447;28;20045;-37
2023/04/02 11:13:45;;;;;;;2.30;1.20;;;15.00;70.40;;;;;;4998902;28;20042;-37
2023/04/02 11:16:14;;;;;;;2.25;1.10;;;14.80;62.30;;;;;;4993815;28;20117;-35
2023/04/02 11:18:40;;;;;;;2.65;1.40;;;14.50;62.80;;;;;;5001502;28;20041;-36
2023/04/02 11:21:29;;;;;;;2.45;1.20;;;14.50;62.90;;;;;;4990808;28;20042;-36
2023/04/02 11:24:00;;;;;;;3.47;1.50;;;14.50;57.50;;;;;;4998709;28;20046;-37
2023/04/02 11:26:36;;;;;;;1.90;1.40;;;14.80;59.10;;;;;;4997781;28;20121;-35
2023/04/02 11:29:14;;;;;;;3.00;1.63;;;15.10;60.70;;;;;;5001755;28;20045;-36
2023/04/02 11:31:41;;;;;;;2.00;1.17;;;15.10;54.80;;;;;;5001221;28;20080;-35
2023/04/02 11:34:34;;;;;;;3.72;1.50;;;15.20;59.90;;;;;;4997972;28;20026;-35
2023/04/02 11:37:02;;;;;;;2.58;1.30;;;15.50;59.80;;;;;;4965890;28;20046;-36
2023/04/02 11:39:53;;;;;;;2.17;1.20;;;15.80;59.90;;;;;;4993278;28;20704;-35
2023/04/02 11:42:28;;;;;;;2.28;1.20;;;16.20;57.10;;;;;;5001693;28;20034;-35
2023/04/02 11:44:55;;;;;;;2.55;1.25;;;16.60;59.30;;;;;;4977211;28;20038;-35
2023/04/02 11:47:26;;;;;;;3.50;1.40;;;16.70;59.80;;;;;;4997745;28;20402;-35
2023/04/02 11:49:57;;;;;;;2.75;1.33;;;16.70;55.90;;;;;;4992205;28;20027;-35
2023/04/02 11:52:32;;;;;;;3.25;1.48;;;17.20;57.40;;;;;;4998264;28;20376;-36
2023/04/02 11:55:21;;;;;;;2.10;1.38;;;17.30;53.80;;;;;;5000356;28;20088;-35
2023/04/02 11:58:04;;;;;;;3.35;1.10;;;17.40;50.90;;;;;;4990336;28;20042;-36
2023/04/02 12:01:02;;;;;;;2.65;1.30;;;17.20;52.10;;;;;;4993136;28;20050;-36
2023/04/02 12:03:46;;;;;;;1.90;1.38;;;17.20;51.30;;;;;;4992180;28;20046;-35
2023/04/02 12:06:18;;;;;;;1.63;1.00;;;17.50;55.90;;;;;;4988975;28;20038;-36
2023/04/02 12:08:46;;;;;;;2.65;1.30;;;17.80;54.00;;;;;;4995914;28;20045;-36
2023/04/02 12:11:13;;;;;;;1.65;1.33;;;18.00;55.00;;;;;;4996176;28;20034;-36
2023/04/02 12:13:39;;;;;;;2.80;1.33;;;17.80;53.40;;;;;;4994405;28;20035;-35
2023/04/02 12:16:09;;;;;;;3.00;1.40;;;17.90;55.10;;;;;;4994743;28;20092;-36
2023/04/02 12:18:40;;;;;;;4.32;1.30;;;18.40;54.80;;;;;;4988946;28;20499;-37
2023/04/02 12:21:06;;;;;;;4.57;1.60;;;18.30;53.40;;;;;;4979267;28;20042;-35
2023/04/02 12:23:35;;;;;;;2.80;1.50;;;18.80;54.40;;;;;;4993398;28;20069;-36
2023/04/02 12:26:07;;;;;;;2.58;1.10;;;18.80;54.00;;;;;;4996750;28;20053;-35
2023/04/02 12:28:36;;;;;;;2.22;1.52;;;18.80;53.30;;;;;;4992942;28;20077;-36
2023/04/02 12:31:08;;;;;;;5.20;1.20;;;18.60;52.90;;;;;;4998154;28;20125;-36
2023/04/02 12:33:39;;;;;;;2.30;1.23;;;18.80;52.00;;;;;;4993030;28;20121;-36
2023/04/02 12:36:16;;;;;;;2.42;1.40;;;18.70;52.10;;;;;;4993165;28;20116;-36
2023/04/02 12:38:45;;;;;;;2.28;1.00;;;19.00;52.50;;;;;;4994002;28;20030;-36
2023/04/02 12:41:26;;;;;;;1.55;1.13;;;19.40;51.60;;;;;;4999009;28;20048;-36
2023/04/02 12:44:10;;;;;;;2.85;1.30;;;18.80;47.90;;;;;;4996873;28;20534;-36
2023/04/02 12:46:38;;;;;;;1.77;1.13;;;18.90;50.60;;;;;;4992477;28;20425;-36
2023/04/02 12:49:05;;;;;;;3.78;1.02;;;19.30;50.60;;;;;;4989901;28;20039;-36
2023/04/02 12:51:32;;;;;;;2.67;1.10;;;19.10;49.00;;;;;;4992174;28;20066;-35
2023/04/02 12:53:58;;;;;;;3.53;1.30;;;19.10;49.30;;;;;;4990770;28;20043;-36
2023/04/02 12:56:24;;;;;;;1.83;1.00;;;19.10;49.00;;;;;;5004360;28;20049;-37
2023/04/02 12:58:54;;;;;;;2.78;1.25;;;19.50;49.10;;;;;;4978423;28;20053;-36
2023/04/02 13:01:23;;;;;;;4.43;1.27;;;20.00;48.10;;;;;;4994820;28;20085;-37
2023/04/02 13:04:02;;;;;;;2.50;1.13;;;20.70;50.20;;;;;;4995931;28;20173;-36
2023/04/02 13:06:29;;;;;;;3.05;1.17;;;20.70;50.30;;;;;;4988389;28;20356;-36
2023/04/02 13:08:56;;;;;;;3.30;1.23;;;20.40;51.10;;;;;;4972739;28;20037;-37
2023/04/02 13:11:32;;;;;;;2.47;1.20;;;20.10;50.70;;;;;;4987618;28;20057;-36
2023/04/02 13:14:01;;;;;;;2.47;1.02;;;19.80;50.80;;;;;;4990267;28;20399;-37
2023/04/02 13:16:36;;;;;;;3.05;1.25;;;20.00;50.90;;;;;;4998529;28;20053;-36
2023/04/02 13:19:32;;;;;;;1.48;0.98;;;19.80;49.90;;;;;;5001747;28;20085;-36
2023/04/02 13:22:00;;;;;;;2.78;1.30;;;20.20;48.90;;;;;;4978173;28;20050;-36
2023/04/02 13:24:28;;;;;;;2.78;1.23;;;20.20;51.50;;;;;;4993203;28;20038;-37
2023/04/02 13:26:57;;;;;;;2.45;1.02;;;20.70;50.50;;;;;;5001053;28;20077;-36
2023/04/02 13:29:26;;;;;;;1.90;1.00;;;20.10;49.40;;;;;;4991609;28;20069;-37
2023/04/02 13:31:55;;;;;;;2.25;1.25;;;20.20;49.30;;;;;;4989928;28;20117;-36
2023/04/02 13:34:21;;;;;;;2.00;1.02;;;20.30;50.00;;;;;;4997035;28;20077;-36
2023/04/02 13:36:47;;;;;;;1.98;1.10;;;20.10;50.00;;;;;;4992739;28;20042;-36